sensor_id;sensor_type;location;lat;lon;timestamp;temperature;humidity
64599;SHT31;51008;51.504;11.548;2023-04-22T00:00:01;7.34;84.34
64599;SHT31;51008;51.504;11.548;2023-04-22T00:05:02;7.31;84.46
64599;SHT31;51008;51.504;11.548;2023-04-22T00:10:04;7.28;84.57
64599;SHT31;51008;51.504;11.548;2023-04-22T00:15:05;7.28;84.69
64599;SHT31;51008;51.504;11.548;2023-04-22T00:20:07;7.34;85.67
64599;SHT31;51008;51.504;11.548;2023-04-22T00:25:08;7.37;85.09
64599;SHT31;51008;51.504;11.548;2023-04-22T00:30:09;7.44;84.87
64599;SHT31;51008;51.504;11.548;2023-04-22T00:35:11;7.54;84.86
64599;SHT31;51008;51.504;11.548;2023-04-22T00:40:12;7.76;84.65
64599;SHT31;51008;51.504;11.548;2023-04-22T00:45:14;7.89;84.26
64599;SHT31;51008;51.504;11.548;2023-04-22T00:50:16;7.94;83.97
64599;SHT31;51008;51.504;11.548;2023-04-22T00:55:17;8.00;83.77
64599;SHT31;51008;51.504;11.548;2023-04-22T01:00:18;7.99;83.91
64599;SHT31;51008;51.504;11.548;2023-04-22T01:05:19;8.00;84.09
64599;SHT31;51008;51.504;11.548;2023-04-22T01:10:21;8.03;83.88
64599;SHT31;51008;51.504;11.548;2023-04-22T01:15:22;8.06;84.02
64599;SHT31;51008;51.504;11.548;2023-04-22T01:20:23;8.07;83.84
64599;SHT31;51008;51.504;11.548;2023-04-22T01:25:25;8.02;84.02
64599;SHT31;51008;51.504;11.548;2023-04-22T01:30:26;7.99;84.10
64599;SHT31;51008;51.504;11.548;2023-04-22T01:35:27;7.96;84.05
64599;SHT31;51008;51.504;11.548;2023-04-22T01:40:30;7.92;84.20
64599;SHT31;51008;51.504;11.548;2023-04-22T01:45:32;7.87;84.24
64599;SHT31;51008;51.504;11.548;2023-04-22T01:50:33;7.87;84.24
64599;SHT31;51008;51.504;11.548;2023-04-22T01:55:34;7.85;84.20
64599;SHT31;51008;51.504;11.548;2023-04-22T02:00:35;7.76;84.19
64599;SHT31;51008;51.504;11.548;2023-04-22T02:05:36;7.57;84.07
64599;SHT31;51008;51.504;11.548;2023-04-22T02:10:37;7.43;84.37
64599;SHT31;51008;51.504;11.548;2023-04-22T02:15:39;7.19;84.27
64599;SHT31;51008;51.504;11.548;2023-04-22T02:20:40;6.99;84.80
64599;SHT31;51008;51.504;11.548;2023-04-22T02:25:49;6.89;85.13
64599;SHT31;51008;51.504;11.548;2023-04-22T02:30:52;6.63;85.48
64599;SHT31;51008;51.504;11.548;2023-04-22T02:35:55;6.43;85.57
64599;SHT31;51008;51.504;11.548;2023-04-22T02:40:56;6.26;86.28
64599;SHT31;51008;51.504;11.548;2023-04-22T02:45:57;6.19;86.32
64599;SHT31;51008;51.504;11.548;2023-04-22T02:50:58;5.98;87.48
64599;SHT31;51008;51.504;11.548;2023-04-22T02:55:59;5.95;87.51
64599;SHT31;51008;51.504;11.548;2023-04-22T03:01:00;5.79;88.04
64599;SHT31;51008;51.504;11.548;2023-04-22T03:06:01;5.78;88.36
64599;SHT31;51008;51.504;11.548;2023-04-22T03:11:03;5.72;87.92
64599;SHT31;51008;51.504;11.548;2023-04-22T03:16:05;5.46;87.94
64599;SHT31;51008;51.504;11.548;2023-04-22T03:21:07;5.42;88.14
64599;SHT31;51008;51.504;11.548;2023-04-22T03:26:08;5.35;88.69
64599;SHT31;51008;51.504;11.548;2023-04-22T03:31:09;5.39;89.54
64599;SHT31;51008;51.504;11.548;2023-04-22T03:36:10;5.33;90.26
64599;SHT31;51008;51.504;11.548;2023-04-22T03:41:12;5.30;89.97
64599;SHT31;51008;51.504;11.548;2023-04-22T03:46:16;5.33;89.80
64599;SHT31;51008;51.504;11.548;2023-04-22T03:51:28;5.30;90.01
64599;SHT31;51008;51.504;11.548;2023-04-22T03:56:31;5.27;89.87
64599;SHT31;51008;51.504;11.548;2023-04-22T04:01:34;5.19;90.30
64599;SHT31;51008;51.504;11.548;2023-04-22T04:06:38;5.09;90.28
64599;SHT31;51008;51.504;11.548;2023-04-22T04:11:39;5.05;90.42
64599;SHT31;51008;51.504;11.548;2023-04-22T04:16:43;5.07;89.96
64599;SHT31;51008;51.504;11.548;2023-04-22T04:21:50;5.27;90.09
64599;SHT31;51008;51.504;11.548;2023-04-22T04:26:51;5.51;89.79
64599;SHT31;51008;51.504;11.548;2023-04-22T04:31:56;5.57;89.43
64599;SHT31;51008;51.504;11.548;2023-04-22T04:36:59;5.48;89.84
64599;SHT31;51008;51.504;11.548;2023-04-22T04:42:08;5.47;90.48
64599;SHT31;51008;51.504;11.548;2023-04-22T04:47:19;5.48;90.06
64599;SHT31;51008;51.504;11.548;2023-04-22T04:52:20;5.60;90.40
64599;SHT31;51008;51.504;11.548;2023-04-22T04:57:22;5.75;91.00
64599;SHT31;51008;51.504;11.548;2023-04-22T05:02:24;6.02;91.68
64599;SHT31;51008;51.504;11.548;2023-04-22T05:07:25;6.30;91.79
64599;SHT31;51008;51.504;11.548;2023-04-22T05:12:27;6.55;91.77
64599;SHT31;51008;51.504;11.548;2023-04-22T05:17:28;6.74;91.43
64599;SHT31;51008;51.504;11.548;2023-04-22T05:22:29;7.00;91.52
64599;SHT31;51008;51.504;11.548;2023-04-22T05:27:30;7.27;90.98
64599;SHT31;51008;51.504;11.548;2023-04-22T05:32:32;7.61;89.54
64599;SHT31;51008;51.504;11.548;2023-04-22T05:37:33;7.97;87.59
64599;SHT31;51008;51.504;11.548;2023-04-22T05:42:35;8.20;87.65
64599;SHT31;51008;51.504;11.548;2023-04-22T05:47:36;8.47;87.43
64599;SHT31;51008;51.504;11.548;2023-04-22T05:52:38;8.79;87.31
64599;SHT31;51008;51.504;11.548;2023-04-22T05:57:47;9.25;86.56
64599;SHT31;51008;51.504;11.548;2023-04-22T06:03:06;9.58;83.54
64599;SHT31;51008;51.504;11.548;2023-04-22T06:08:07;9.63;83.27
64599;SHT31;51008;51.504;11.548;2023-04-22T06:13:09;10.04;83.56
64599;SHT31;51008;51.504;11.548;2023-04-22T06:18:10;10.37;83.22
64599;SHT31;51008;51.504;11.548;2023-04-22T06:23:11;10.69;82.80
64599;SHT31;51008;51.504;11.548;2023-04-22T06:28:12;11.07;80.83
64599;SHT31;51008;51.504;11.548;2023-04-22T06:33:14;11.29;80.10
64599;SHT31;51008;51.504;11.548;2023-04-22T06:38:15;11.56;80.03
64599;SHT31;51008;51.504;11.548;2023-04-22T06:43:33;11.80;79.79
64599;SHT31;51008;51.504;11.548;2023-04-22T06:48:43;12.04;76.87
64599;SHT31;51008;51.504;11.548;2023-04-22T06:53:57;12.08;76.95
64599;SHT31;51008;51.504;11.548;2023-04-22T06:58:58;12.52;76.98
64599;SHT31;51008;51.504;11.548;2023-04-22T07:03:59;12.67;76.53
64599;SHT31;51008;51.504;11.548;2023-04-22T07:09:00;12.97;75.42
64599;SHT31;51008;51.504;11.548;2023-04-22T07:14:02;13.23;75.35
64599;SHT31;51008;51.504;11.548;2023-04-22T07:19:03;13.69;74.81
64599;SHT31;51008;51.504;11.548;2023-04-22T07:24:04;13.95;74.25
64599;SHT31;51008;51.504;11.548;2023-04-22T07:29:05;14.22;73.69
64599;SHT31;51008;51.504;11.548;2023-04-22T07:34:06;14.57;72.84
64599;SHT31;51008;51.504;11.548;2023-04-22T07:39:08;14.57;72.31
64599;SHT31;51008;51.504;11.548;2023-04-22T07:44:09;15.18;71.72
64599;SHT31;51008;51.504;11.548;2023-04-22T07:49:10;15.60;70.76
64599;SHT31;51008;51.504;11.548;2023-04-22T07:54:11;15.77;70.65
64599;SHT31;51008;51.504;11.548;2023-04-22T07:59:12;16.25;68.77
64599;SHT31;51008;51.504;11.548;2023-04-22T08:04:13;16.22;70.27
64599;SHT31;51008;51.504;11.548;2023-04-22T08:09:14;16.26;70.61
64599;SHT31;51008;51.504;11.548;2023-04-22T08:14:15;15.94;69.19
64599;SHT31;51008;51.504;11.548;2023-04-22T08:19:17;16.30;69.95
64599;SHT31;51008;51.504;11.548;2023-04-22T08:24:18;16.11;68.80
64599;SHT31;51008;51.504;11.548;2023-04-22T08:29:19;17.11;69.19
64599;SHT31;51008;51.504;11.548;2023-04-22T08:34:20;17.29;65.53
64599;SHT31;51008;51.504;11.548;2023-04-22T08:39:21;17.74;64.58
64599;SHT31;51008;51.504;11.548;2023-04-22T08:44:23;17.64;62.44
64599;SHT31;51008;51.504;11.548;2023-04-22T08:49:24;18.09;63.61
64599;SHT31;51008;51.504;11.548;2023-04-22T08:54:26;17.64;62.24
64599;SHT31;51008;51.504;11.548;2023-04-22T08:59:27;17.43;65.04
64599;SHT31;51008;51.504;11.548;2023-04-22T09:04:28;17.35;64.62
64599;SHT31;51008;51.504;11.548;2023-04-22T09:09:29;17.99;64.30
64599;SHT31;51008;51.504;11.548;2023-04-22T09:14:31;18.43;63.27
64599;SHT31;51008;51.504;11.548;2023-04-22T09:19:33;18.92;59.80
64599;SHT31;51008;51.504;11.548;2023-04-22T09:24:34;19.22;58.94
64599;SHT31;51008;51.504;11.548;2023-04-22T09:29:35;19.40;58.80
64599;SHT31;51008;51.504;11.548;2023-04-22T09:34:48;19.38;59.75
64599;SHT31;51008;51.504;11.548;2023-04-22T09:39:49;19.61;59.40
64599;SHT31;51008;51.504;11.548;2023-04-22T09:44:51;19.79;60.20
64599;SHT31;51008;51.504;11.548;2023-04-22T09:49:52;20.13;58.05
64599;SHT31;51008;51.504;11.548;2023-04-22T09:54:53;19.82;57.87
64599;SHT31;51008;51.504;11.548;2023-04-22T09:59:57;20.13;59.09
64599;SHT31;51008;51.504;11.548;2023-04-22T10:04:58;20.57;59.55
64599;SHT31;51008;51.504;11.548;2023-04-22T10:09:59;20.50;59.04
64599;SHT31;51008;51.504;11.548;2023-04-22T10:15:05;20.72;58.63
64599;SHT31;51008;51.504;11.548;2023-04-22T10:20:10;20.61;57.85
64599;SHT31;51008;51.504;11.548;2023-04-22T10:25:20;20.85;58.23
64599;SHT31;51008;51.504;11.548;2023-04-22T10:30:30;20.92;56.21
64599;SHT31;51008;51.504;11.548;2023-04-22T10:35:31;21.29;58.76
64599;SHT31;51008;51.504;11.548;2023-04-22T10:40:32;21.27;55.17
64599;SHT31;51008;51.504;11.548;2023-04-22T10:45:33;21.29;56.53
64599;SHT31;51008;51.504;11.548;2023-04-22T10:50:34;21.44;55.47
64599;SHT31;51008;51.504;11.548;2023-04-22T10:55:48;20.95;55.25
64599;SHT31;51008;51.504;11.548;2023-04-22T11:00:53;20.94;55.35
64599;SHT31;51008;51.504;11.548;2023-04-22T11:06:16;21.00;57.12
64599;SHT31;51008;51.504;11.548;2023-04-22T11:11:17;20.99;56.65
64599;SHT31;51008;51.504;11.548;2023-04-22T11:16:20;21.54;54.81
64599;SHT31;51008;51.504;11.548;2023-04-22T11:21:21;21.44;53.23
64599;SHT31;51008;51.504;11.548;2023-04-22T11:26:33;21.43;53.18
64599;SHT31;51008;51.504;11.548;2023-04-22T11:31:34;21.27;53.38
64599;SHT31;51008;51.504;11.548;2023-04-22T11:36:35;21.58;53.83
64599;SHT31;51008;51.504;11.548;2023-04-22T11:41:39;21.92;52.75
64599;SHT31;51008;51.504;11.548;2023-04-22T11:46:43;21.77;50.48
64599;SHT31;51008;51.504;11.548;2023-04-22T11:51:53;21.77;49.51
64599;SHT31;51008;51.504;11.548;2023-04-22T11:56:54;22.14;51.20
64599;SHT31;51008;51.504;11.548;2023-04-22T12:01:55;22.09;50.06
64599;SHT31;51008;51.504;11.548;2023-04-22T12:06:56;22.03;50.01
64599;SHT31;51008;51.504;11.548;2023-04-22T12:11:57;21.92;50.20
64599;SHT31;51008;51.504;11.548;2023-04-22T12:17:02;22.08;48.30
64599;SHT31;51008;51.504;11.548;2023-04-22T12:22:03;22.34;49.06
64599;SHT31;51008;51.504;11.548;2023-04-22T12:27:04;22.09;47.45
64599;SHT31;51008;51.504;11.548;2023-04-22T12:32:05;22.01;50.66
64599;SHT31;51008;51.504;11.548;2023-04-22T12:37:06;21.98;47.28
64599;SHT31;51008;51.504;11.548;2023-04-22T12:42:07;22.19;47.53
64599;SHT31;51008;51.504;11.548;2023-04-22T12:47:08;22.30;46.59
64599;SHT31;51008;51.504;11.548;2023-04-22T12:52:09;22.06;47.87
64599;SHT31;51008;51.504;11.548;2023-04-22T12:57:10;22.20;49.56
64599;SHT31;51008;51.504;11.548;2023-04-22T13:02:11;22.24;49.14
64599;SHT31;51008;51.504;11.548;2023-04-22T13:07:12;22.36;47.11
64599;SHT31;51008;51.504;11.548;2023-04-22T13:12:13;22.57;47.00
64599;SHT31;51008;51.504;11.548;2023-04-22T13:17:14;22.78;48.53
64599;SHT31;51008;51.504;11.548;2023-04-22T13:22:15;22.32;46.16
64599;SHT31;51008;51.504;11.548;2023-04-22T13:27:16;22.26;47.42
64599;SHT31;51008;51.504;11.548;2023-04-22T13:32:17;22.34;47.04
64599;SHT31;51008;51.504;11.548;2023-04-22T13:37:18;22.19;47.21
64599;SHT31;51008;51.504;11.548;2023-04-22T13:42:19;22.23;46.16
64599;SHT31;51008;51.504;11.548;2023-04-22T13:47:20;22.37;46.70
64599;SHT31;51008;51.504;11.548;2023-04-22T13:52:21;22.48;47.14
64599;SHT31;51008;51.504;11.548;2023-04-22T13:57:22;22.16;46.62
64599;SHT31;51008;51.504;11.548;2023-04-22T14:02:23;22.12;48.00
64599;SHT31;51008;51.504;11.548;2023-04-22T14:07:24;21.95;48.32
64599;SHT31;51008;51.504;11.548;2023-04-22T14:12:25;21.73;47.75
64599;SHT31;51008;51.504;11.548;2023-04-22T14:17:26;21.29;48.75
64599;SHT31;51008;51.504;11.548;2023-04-22T14:22:27;20.96;49.64
64599;SHT31;51008;51.504;11.548;2023-04-22T14:27:28;20.68;51.22
64599;SHT31;51008;51.504;11.548;2023-04-22T14:32:29;20.70;50.67
64599;SHT31;51008;51.504;11.548;2023-04-22T14:37:30;20.64;52.41
64599;SHT31;51008;51.504;11.548;2023-04-22T14:42:31;20.84;52.31
64599;SHT31;51008;51.504;11.548;2023-04-22T14:47:32;20.91;52.50
64599;SHT31;51008;51.504;11.548;2023-04-22T14:52:33;21.12;51.37
64599;SHT31;51008;51.504;11.548;2023-04-22T14:57:35;21.14;51.73
64599;SHT31;51008;51.504;11.548;2023-04-22T15:02:37;21.18;53.03
64599;SHT31;51008;51.504;11.548;2023-04-22T15:07:38;21.14;53.31
64599;SHT31;51008;51.504;11.548;2023-04-22T15:12:39;21.00;54.56
64599;SHT31;51008;51.504;11.548;2023-04-22T15:17:40;20.94;52.86
64599;SHT31;51008;51.504;11.548;2023-04-22T15:22:43;20.99;54.43
64599;SHT31;51008;51.504;11.548;2023-04-22T15:27:44;21.18;56.70
64599;SHT31;51008;51.504;11.548;2023-04-22T15:32:45;21.14;54.24
64599;SHT31;51008;51.504;11.548;2023-04-22T15:37:46;21.29;53.14
64599;SHT31;51008;51.504;11.548;2023-04-22T15:42:47;21.41;51.29
64599;SHT31;51008;51.504;11.548;2023-04-22T15:47:48;21.43;51.34
64599;SHT31;51008;51.504;11.548;2023-04-22T15:52:49;21.36;50.97
64599;SHT31;51008;51.504;11.548;2023-04-22T15:57:50;21.23;52.23
64599;SHT31;51008;51.504;11.548;2023-04-22T16:02:51;21.10;51.87
64599;SHT31;51008;51.504;11.548;2023-04-22T16:07:52;20.78;52.04
64599;SHT31;51008;51.504;11.548;2023-04-22T16:12:53;20.60;52.75
64599;SHT31;51008;51.504;11.548;2023-04-22T16:17:54;20.34;52.97
64599;SHT31;51008;51.504;11.548;2023-04-22T16:22:55;20.10;53.88
64599;SHT31;51008;51.504;11.548;2023-04-22T16:27:57;19.93;53.89
64599;SHT31;51008;51.504;11.548;2023-04-22T16:32:58;19.75;54.22
64599;SHT31;51008;51.504;11.548;2023-04-22T16:37:59;19.72;54.79
64599;SHT31;51008;51.504;11.548;2023-04-22T16:43:00;19.46;54.75
64599;SHT31;51008;51.504;11.548;2023-04-22T16:48:01;19.40;54.61
64599;SHT31;51008;51.504;11.548;2023-04-22T16:53:02;19.40;54.20
64599;SHT31;51008;51.504;11.548;2023-04-22T16:58:03;19.46;54.64
64599;SHT31;51008;51.504;11.548;2023-04-22T17:03:05;19.43;55.06
64599;SHT31;51008;51.504;11.548;2023-04-22T17:08:06;19.41;54.68
64599;SHT31;51008;51.504;11.548;2023-04-22T17:13:07;19.40;55.23
64599;SHT31;51008;51.504;11.548;2023-04-22T17:18:08;19.37;55.51
64599;SHT31;51008;51.504;11.548;2023-04-22T17:23:09;19.26;55.59
64599;SHT31;51008;51.504;11.548;2023-04-22T17:28:10;19.15;55.86
64599;SHT31;51008;51.504;11.548;2023-04-22T17:33:11;19.06;55.29
64599;SHT31;51008;51.504;11.548;2023-04-22T17:38:12;18.92;55.24
64599;SHT31;51008;51.504;11.548;2023-04-22T17:43:13;18.88;55.04
64599;SHT31;51008;51.504;11.548;2023-04-22T17:48:14;18.81;54.30
64599;SHT31;51008;51.504;11.548;2023-04-22T17:53:15;18.65;54.84
64599;SHT31;51008;51.504;11.548;2023-04-22T17:58:16;18.56;55.32
64599;SHT31;51008;51.504;11.548;2023-04-22T18:03:17;18.49;54.63
64599;SHT31;51008;51.504;11.548;2023-04-22T18:08:19;18.29;55.74
64599;SHT31;51008;51.504;11.548;2023-04-22T18:13:20;18.06;56.20
64599;SHT31;51008;51.504;11.548;2023-04-22T18:18:21;17.89;56.84
64599;SHT31;51008;51.504;11.548;2023-04-22T18:23:22;17.78;56.42
64599;SHT31;51008;51.504;11.548;2023-04-22T18:28:23;17.67;57.12
64599;SHT31;51008;51.504;11.548;2023-04-22T18:33:24;17.59;57.64
64599;SHT31;51008;51.504;11.548;2023-04-22T18:38:25;17.40;58.34
64599;SHT31;51008;51.504;11.548;2023-04-22T18:43:27;17.39;58.20
64599;SHT31;51008;51.504;11.548;2023-04-22T18:48:28;17.43;58.21
64599;SHT31;51008;51.504;11.548;2023-04-22T18:53:29;17.32;59.01
64599;SHT31;51008;51.504;11.548;2023-04-22T18:58:32;17.39;58.45
64599;SHT31;51008;51.504;11.548;2023-04-22T19:03:33;17.37;58.68
64599;SHT31;51008;51.504;11.548;2023-04-22T19:08:34;17.69;57.15
64599;SHT31;51008;51.504;11.548;2023-04-22T19:13:35;17.80;56.24
64599;SHT31;51008;51.504;11.548;2023-04-22T19:18:36;17.71;58.49
64599;SHT31;51008;51.504;11.548;2023-04-22T19:23:37;17.67;59.24
64599;SHT31;51008;51.504;11.548;2023-04-22T19:28:39;17.49;59.81
64599;SHT31;51008;51.504;11.548;2023-04-22T19:33:40;17.37;60.87
64599;SHT31;51008;51.504;11.548;2023-04-22T19:38:41;17.33;60.97
64599;SHT31;51008;51.504;11.548;2023-04-22T19:43:42;17.12;61.86
64599;SHT31;51008;51.504;11.548;2023-04-22T19:48:43;17.07;62.51
64599;SHT31;51008;51.504;11.548;2023-04-22T19:53:45;16.98;63.65
64599;SHT31;51008;51.504;11.548;2023-04-22T19:58:46;16.84;64.71
64599;SHT31;51008;51.504;11.548;2023-04-22T20:03:48;16.71;65.76
64599;SHT31;51008;51.504;11.548;2023-04-22T20:08:50;16.61;65.14
64599;SHT31;51008;51.504;11.548;2023-04-22T20:13:53;16.57;65.84
64599;SHT31;51008;51.504;11.548;2023-04-22T20:18:55;16.55;66.74
64599;SHT31;51008;51.504;11.548;2023-04-22T20:23:56;16.45;67.17
64599;SHT31;51008;51.504;11.548;2023-04-22T20:28:59;16.56;66.48
64599;SHT31;51008;51.504;11.548;2023-04-22T20:34:00;16.67;66.23
64599;SHT31;51008;51.504;11.548;2023-04-22T20:39:02;16.73;65.92
64599;SHT31;51008;51.504;11.548;2023-04-22T20:44:03;16.75;66.04
64599;SHT31;51008;51.504;11.548;2023-04-22T20:49:05;16.68;66.57
64599;SHT31;51008;51.504;11.548;2023-04-22T20:54:06;16.61;67.14
64599;SHT31;51008;51.504;11.548;2023-04-22T20:59:08;16.46;70.36
64599;SHT31;51008;51.504;11.548;2023-04-22T21:04:09;16.22;71.31
64599;SHT31;51008;51.504;11.548;2023-04-22T21:09:11;16.13;72.70
64599;SHT31;51008;51.504;11.548;2023-04-22T21:14:12;16.00;72.80
64599;SHT31;51008;51.504;11.548;2023-04-22T21:19:14;15.90;73.65
64599;SHT31;51008;51.504;11.548;2023-04-22T21:24:17;15.83;74.68
64599;SHT31;51008;51.504;11.548;2023-04-22T21:29:18;15.77;74.18
64599;SHT31;51008;51.504;11.548;2023-04-22T21:34:19;15.71;73.38
64599;SHT31;51008;51.504;11.548;2023-04-22T21:39:20;15.73;74.23
64599;SHT31;51008;51.504;11.548;2023-04-22T21:44:21;15.71;73.45
64599;SHT31;51008;51.504;11.548;2023-04-22T21:49:22;15.64;73.51
64599;SHT31;51008;51.504;11.548;2023-04-22T21:54:23;15.63;73.99
64599;SHT31;51008;51.504;11.548;2023-04-22T21:59:24;15.60;74.94
64599;SHT31;51008;51.504;11.548;2023-04-22T22:04:25;15.54;75.29
64599;SHT31;51008;51.504;11.548;2023-04-22T22:09:26;15.49;75.32
64599;SHT31;51008;51.504;11.548;2023-04-22T22:14:27;15.59;72.55
64599;SHT31;51008;51.504;11.548;2023-04-22T22:19:28;15.71;71.96
64599;SHT31;51008;51.504;11.548;2023-04-22T22:24:29;15.84;70.73
64599;SHT31;51008;51.504;11.548;2023-04-22T22:29:30;15.91;70.72
64599;SHT31;51008;51.504;11.548;2023-04-22T22:34:32;15.94;71.26
64599;SHT31;51008;51.504;11.548;2023-04-22T22:39:32;15.84;71.44
64599;SHT31;51008;51.504;11.548;2023-04-22T22:44:33;15.84;71.63
64599;SHT31;51008;51.504;11.548;2023-04-22T22:49:34;15.78;72.00
64599;SHT31;51008;51.504;11.548;2023-04-22T22:54:36;15.77;70.96
64599;SHT31;51008;51.504;11.548;2023-04-22T22:59:37;15.83;71.24
64599;SHT31;51008;51.504;11.548;2023-04-22T23:04:39;15.81;70.09
64599;SHT31;51008;51.504;11.548;2023-04-22T23:09:39;15.91;69.74
64599;SHT31;51008;51.504;11.548;2023-04-22T23:14:40;15.84;69.65
64599;SHT31;51008;51.504;11.548;2023-04-22T23:19:45;15.91;69.05
64599;SHT31;51008;51.504;11.548;2023-04-22T23:24:46;15.95;68.69
64599;SHT31;51008;51.504;11.548;2023-04-22T23:29:47;15.94;69.21
64599;SHT31;51008;51.504;11.548;2023-04-22T23:34:50;15.88;69.69
64599;SHT31;51008;51.504;11.548;2023-04-22T23:39:52;15.74;70.58
64599;SHT31;51008;51.504;11.548;2023-04-22T23:44:53;15.67;70.73
64599;SHT31;51008;51.504;11.548;2023-04-22T23:49:54;15.53;71.11
64599;SHT31;51008;51.504;11.548;2023-04-22T23:54:56;15.47;70.68
64599;SHT31;51008;51.504;11.548;2023-04-22T23:59:57;15.47;70.64
